Terminal Aerodrome Forecast
Issued by NWS Duluth, MN

Home | Current Version | Previous Version | Text Only | Print | Product List | Glossary On
Versions: 1 2 3 4 5 6 7 8 9 10 11 12 13 14 15 16 17 18 19
000
FTUS43 KDLH 311736
TAFINL
TAF
KINL 311736Z 3118/0118 30014G22KT P6SM VCSH SCT050
      TEMPO 3118/3121 6SM -TSRA BKN050CB
     FM010100 31007KT P6SM FEW080=

USA.gov is the U.S. government's official web portal to all federal, state and local government web resources and services.